createdAt,value
2023-05-02T00:01:32.972Z,13.16
2023-05-02T00:04:01.651Z,13.14
2023-05-02T00:06:29.990Z,13.10
2023-05-02T00:08:59.687Z,13.05
2023-05-02T00:11:27.768Z,13.03
2023-05-02T00:13:55.877Z,13.06
2023-05-02T00:16:23.948Z,13.15
2023-05-02T00:18:52.099Z,13.18
2023-05-02T00:21:20.183Z,13.21
2023-05-02T00:23:48.233Z,13.24
2023-05-02T00:26:17.819Z,13.33
2023-05-02T00:28:46.026Z,13.38
2023-05-02T00:31:14.222Z,13.39
2023-05-02T00:33:42.440Z,13.45
2023-05-02T00:36:15.896Z,13.47
2023-05-02T00:38:44.130Z,13.46
2023-05-02T00:41:12.263Z,13.44
2023-05-02T00:43:41.821Z,13.45
2023-05-02T00:46:12.431Z,13.46
2023-05-02T00:48:41.425Z,13.47
2023-05-02T00:51:12.299Z,13.50
2023-05-02T00:53:41.092Z,13.51
2023-05-02T00:56:09.668Z,13.51
2023-05-02T00:58:38.990Z,13.48
2023-05-02T01:01:28.020Z,13.47
2023-05-02T01:04:06.121Z,13.44
2023-05-02T01:06:46.641Z,13.44
2023-05-02T01:09:28.227Z,13.42
2023-05-02T01:12:05.761Z,13.39
2023-05-02T01:14:37.657Z,13.36
2023-05-02T01:17:11.428Z,13.34
2023-05-02T01:19:43.385Z,13.31
2023-05-02T01:22:13.107Z,13.31
2023-05-02T01:24:55.500Z,13.27
2023-05-02T01:27:32.197Z,13.14
2023-05-02T01:30:03.606Z,13.06
2023-05-02T01:32:34.727Z,13.00
2023-05-02T01:35:04.222Z,12.99
2023-05-02T01:37:33.501Z,12.97
2023-05-02T01:40:04.658Z,13.01
2023-05-02T01:42:35.278Z,13.09
2023-05-02T01:45:06.243Z,13.08
2023-05-02T01:47:37.338Z,13.19
2023-05-02T01:50:09.509Z,13.25
2023-05-02T01:52:38.845Z,13.26
2023-05-02T01:55:11.168Z,13.26
2023-05-02T01:57:42.408Z,13.25
2023-05-02T02:00:14.059Z,13.21
2023-05-02T02:02:43.866Z,13.19
2023-05-02T02:05:12.660Z,13.15
2023-05-02T02:07:41.574Z,13.11
2023-05-02T02:10:10.490Z,13.09
2023-05-02T02:12:43.283Z,13.02
2023-05-02T02:15:21.290Z,12.96
2023-05-02T02:17:55.492Z,12.88
2023-05-02T02:20:24.188Z,12.82
2023-05-02T02:22:54.738Z,12.73
2023-05-02T02:25:23.368Z,12.70
2023-05-02T02:27:52.201Z,12.70
2023-05-02T02:30:22.038Z,12.61
2023-05-02T02:32:50.487Z,12.64
2023-05-02T02:35:18.787Z,12.63
2023-05-02T02:37:50.586Z,12.62
2023-05-02T02:40:25.053Z,12.64
2023-05-02T02:43:13.445Z,12.60
2023-05-02T02:45:53.664Z,12.53
2023-05-02T02:48:33.335Z,12.43
2023-05-02T02:51:12.886Z,12.41
2023-05-02T02:53:54.603Z,12.40
2023-05-02T02:56:29.954Z,12.47
2023-05-02T02:59:05.969Z,12.57
2023-05-02T03:01:39.231Z,12.67
2023-05-02T03:04:09.887Z,12.72
2023-05-02T03:06:38.392Z,12.74
2023-05-02T03:09:06.628Z,12.75
2023-05-02T03:11:34.754Z,12.80
2023-05-02T03:14:03.042Z,12.83
2023-05-02T03:16:37.895Z,12.88
2023-05-02T03:19:07.105Z,12.88
2023-05-02T03:21:36.444Z,12.91
2023-05-02T03:24:05.750Z,12.91
2023-05-02T03:26:34.107Z,12.92
2023-05-02T03:29:02.282Z,12.92
2023-05-02T03:31:30.452Z,12.88
2023-05-02T03:34:00.129Z,12.83
2023-05-02T03:36:28.386Z,12.82
2023-05-02T03:38:56.438Z,12.81
2023-05-02T03:41:24.910Z,12.78
2023-05-02T03:43:53.120Z,12.71
2023-05-02T03:46:21.324Z,12.70
2023-05-02T03:48:49.450Z,12.72
2023-05-02T03:51:19.042Z,12.73
2023-05-02T03:53:47.911Z,12.76
2023-05-02T03:56:20.338Z,12.81
2023-05-02T03:58:49.529Z,12.79
2023-05-02T04:01:18.084Z,12.77
2023-05-02T04:03:46.446Z,12.75
2023-05-02T04:06:14.950Z,12.68
2023-05-02T04:08:44.759Z,12.62
2023-05-02T04:11:12.918Z,12.55
2023-05-02T04:13:41.177Z,12.46
2023-05-02T04:16:10.566Z,12.38
2023-05-02T04:18:38.680Z,12.36
2023-05-02T04:21:09.497Z,12.37
2023-05-02T04:23:37.595Z,12.39
2023-05-02T04:26:07.280Z,12.42
2023-05-02T04:28:36.909Z,12.51
2023-05-02T04:31:05.349Z,12.62
2023-05-02T04:33:33.566Z,12.65
2023-05-02T04:36:02.941Z,12.69
2023-05-02T04:38:31.216Z,12.67
2023-05-02T04:40:59.484Z,12.67
2023-05-02T04:43:38.605Z,12.70
2023-05-02T04:46:06.773Z,12.72
2023-05-02T04:48:34.964Z,12.76
2023-05-02T04:51:03.353Z,12.80
2023-05-02T04:53:31.532Z,12.79
2023-05-02T04:55:59.832Z,12.77
2023-05-02T04:58:28.056Z,12.77
2023-05-02T05:00:57.704Z,12.81
2023-05-02T05:03:26.017Z,12.87
2023-05-02T05:05:54.357Z,12.92
2023-05-02T05:08:22.932Z,12.93
2023-05-02T05:10:51.855Z,12.95
2023-05-02T05:13:19.997Z,12.94
2023-05-02T05:15:49.557Z,13.02
2023-05-02T05:18:19.242Z,13.04
2023-05-02T05:20:47.436Z,13.13
2023-05-02T05:23:15.528Z,13.24
2023-05-02T05:25:45.618Z,13.31
2023-05-02T05:28:14.264Z,13.33
2023-05-02T05:30:42.310Z,13.29
2023-05-02T05:33:10.578Z,13.34
2023-05-02T05:35:40.174Z,13.34
2023-05-02T05:38:08.372Z,13.31
2023-05-02T05:40:36.531Z,13.37
2023-05-02T05:43:04.762Z,13.39
2023-05-02T05:45:32.893Z,13.43
2023-05-02T05:48:01.188Z,13.46
2023-05-02T05:50:29.335Z,13.45
2023-05-02T05:52:58.809Z,13.33
2023-05-02T05:55:28.962Z,13.31
2023-05-02T05:57:57.066Z,13.24
2023-05-02T06:00:25.262Z,13.28
2023-05-02T06:02:53.587Z,13.28
2023-05-02T06:05:21.776Z,13.34
2023-05-02T06:07:49.935Z,13.53
2023-05-02T06:10:19.667Z,13.78
2023-05-02T06:12:49.242Z,13.97
2023-05-02T06:15:17.756Z,14.18
2023-05-02T06:17:46.000Z,14.35
2023-05-02T06:20:15.243Z,14.42
2023-05-02T06:22:44.155Z,14.47
2023-05-02T06:25:12.225Z,14.48
2023-05-02T06:27:41.785Z,14.55
2023-05-02T06:30:10.880Z,14.54
2023-05-02T06:32:39.058Z,14.61
2023-05-02T06:35:07.975Z,14.82
2023-05-02T06:37:36.715Z,15.08
2023-05-02T06:40:05.626Z,15.37
2023-05-02T06:42:33.752Z,16.08
2023-05-02T06:45:03.233Z,17.50
2023-05-02T06:47:31.440Z,18.65
2023-05-02T06:49:59.893Z,19.55
2023-05-02T06:52:28.388Z,20.41
2023-05-02T06:54:56.776Z,20.54
2023-05-02T06:57:26.053Z,20.77
2023-05-02T06:59:54.183Z,21.36
2023-05-02T07:02:23.825Z,22.20
2023-05-02T07:04:52.075Z,23.34
2023-05-02T07:07:22.319Z,24.64
2023-05-02T07:09:50.419Z,25.81
2023-05-02T07:12:18.593Z,26.74
2023-05-02T07:14:47.549Z,27.47
2023-05-02T07:17:16.000Z,28.11
2023-05-02T07:19:45.819Z,28.65
2023-05-02T07:22:14.181Z,28.88
2023-05-02T07:24:42.925Z,28.93
2023-05-02T07:27:11.484Z,29.16
2023-05-02T07:29:40.131Z,29.06
2023-05-02T07:32:08.468Z,29.27
2023-05-02T07:34:36.626Z,29.33
2023-05-02T07:37:06.163Z,29.71
2023-05-02T07:39:34.758Z,29.76
2023-05-02T07:42:03.843Z,30.22
2023-05-02T07:44:33.476Z,30.94
2023-05-02T07:47:01.592Z,31.26
2023-05-02T07:49:29.827Z,31.99
2023-05-02T07:51:58.188Z,32.90
2023-05-02T07:54:27.892Z,33.52
2023-05-02T07:56:58.373Z,33.86
2023-05-02T07:59:26.528Z,34.25
2023-05-02T08:01:54.704Z,34.65
2023-05-02T08:04:22.917Z,34.55
2023-05-02T08:06:51.312Z,34.18
2023-05-02T08:09:19.489Z,33.73
2023-05-02T08:11:49.054Z,33.97
2023-05-02T08:14:17.928Z,34.03
2023-05-02T08:16:46.743Z,34.12
2023-05-02T08:19:15.194Z,33.90
2023-05-02T08:21:43.846Z,33.76
2023-05-02T08:24:11.969Z,34.00
2023-05-02T08:26:40.052Z,34.56
2023-05-02T08:29:11.842Z,34.89
2023-05-02T08:31:40.414Z,35.07
2023-05-02T08:34:08.988Z,34.73
2023-05-02T08:36:37.444Z,35.17
2023-05-02T08:39:08.183Z,35.99
2023-05-02T08:41:36.822Z,36.98
2023-05-02T08:44:05.202Z,37.16
2023-05-02T08:46:37.124Z,37.00
2023-05-02T08:49:06.661Z,37.65
2023-05-02T08:51:37.077Z,37.21
2023-05-02T08:54:09.644Z,37.27
2023-05-02T08:56:39.124Z,37.65
2023-05-02T08:59:09.047Z,38.40
2023-05-02T09:01:40.476Z,39.26
2023-05-02T09:04:08.744Z,39.40
2023-05-02T09:06:38.055Z,39.33
2023-05-02T09:09:06.275Z,39.16
2023-05-02T09:11:34.463Z,39.05
2023-05-02T09:14:04.547Z,39.05
2023-05-02T09:16:41.285Z,39.87
2023-05-02T09:19:09.812Z,40.40
2023-05-02T09:21:40.176Z,41.29
2023-05-02T09:24:17.267Z,42.63
2023-05-02T09:26:58.387Z,43.67
2023-05-02T09:29:26.479Z,44.89
2023-05-02T09:31:56.796Z,45.78
2023-05-02T09:34:25.231Z,45.59
2023-05-02T09:36:54.712Z,44.98
2023-05-02T09:39:26.047Z,44.78
2023-05-02T09:41:54.902Z,45.04
2023-05-02T09:44:24.737Z,45.46
2023-05-02T09:46:54.574Z,45.47
2023-05-02T09:49:41.314Z,46.49
2023-05-02T09:52:13.464Z,47.51
2023-05-02T09:54:41.641Z,48.51
2023-05-02T09:57:11.060Z,48.82
2023-05-02T09:59:41.088Z,49.21
2023-05-02T10:02:12.163Z,49.40
2023-05-02T10:04:43.255Z,49.78
2023-05-02T10:07:12.614Z,49.50
2023-05-02T10:09:45.644Z,49.17
2023-05-02T10:12:17.116Z,48.77
2023-05-02T10:14:51.826Z,48.19
2023-05-02T10:17:28.164Z,47.01
2023-05-02T10:20:01.874Z,45.76
2023-05-02T10:22:31.310Z,44.67
2023-05-02T10:25:01.335Z,42.85
2023-05-02T10:27:32.134Z,40.45
2023-05-02T10:30:01.590Z,37.59
2023-05-02T10:32:30.297Z,34.88
2023-05-02T10:35:05.136Z,32.91
2023-05-02T10:37:34.775Z,31.81
2023-05-02T10:40:03.572Z,30.25
2023-05-02T10:42:32.247Z,28.96
2023-05-02T10:45:01.526Z,28.14
2023-05-02T10:47:30.516Z,27.59
2023-05-02T10:50:01.626Z,26.62
2023-05-02T10:52:31.943Z,26.17
2023-05-02T10:55:16.271Z,25.85
2023-05-02T10:58:14.057Z,25.89
2023-05-02T11:00:42.150Z,25.95
2023-05-02T11:03:10.405Z,25.38
2023-05-02T11:06:06.941Z,24.95
2023-05-02T11:08:35.194Z,24.90
2023-05-02T11:11:36.545Z,25.07
2023-05-02T11:14:04.697Z,25.04
2023-05-02T11:17:17.363Z,24.97
2023-05-02T11:20:27.703Z,25.05
2023-05-02T11:23:22.627Z,25.28
2023-05-02T11:25:51.890Z,25.55
2023-05-02T11:28:47.940Z,25.74
2023-05-02T11:32:05.116Z,25.72
2023-05-02T11:34:45.575Z,25.73
2023-05-02T11:37:15.599Z,25.66
2023-05-02T11:39:46.775Z,25.45
2023-05-02T11:42:30.166Z,25.26
2023-05-02T11:44:59.344Z,25.28
2023-05-02T11:47:29.632Z,25.27
2023-05-02T11:49:59.952Z,25.29
2023-05-02T11:52:28.230Z,25.35
2023-05-02T11:54:58.535Z,25.39
2023-05-02T11:57:26.786Z,25.46
2023-05-02T11:59:55.902Z,25.51
2023-05-02T12:02:38.092Z,25.61
2023-05-02T12:05:07.349Z,25.68
2023-05-02T12:07:39.359Z,25.77
2023-05-02T12:10:10.778Z,25.57
2023-05-02T12:12:39.538Z,25.61
2023-05-02T12:15:09.447Z,25.61
2023-05-02T12:17:42.065Z,25.57
2023-05-02T12:20:11.855Z,25.38
2023-05-02T12:22:40.616Z,25.40
2023-05-02T12:25:11.146Z,25.41
2023-05-02T12:27:39.610Z,25.34
2023-05-02T12:30:08.912Z,25.32
2023-05-02T12:32:37.869Z,25.40
2023-05-02T12:35:07.282Z,25.40
2023-05-02T12:37:36.846Z,25.49
2023-05-02T12:40:16.565Z,25.58
2023-05-02T12:43:00.111Z,25.67
2023-05-02T12:45:31.136Z,25.71
2023-05-02T12:47:59.379Z,25.75
2023-05-02T12:50:38.009Z,25.77
2023-05-02T12:53:06.498Z,25.88
2023-05-02T12:55:34.730Z,25.93
2023-05-02T12:58:06.174Z,25.88
2023-05-02T13:00:36.361Z,25.82
2023-05-02T13:03:05.052Z,25.83
2023-05-02T13:05:33.502Z,25.75
2023-05-02T13:08:01.769Z,25.72
2023-05-02T13:10:30.276Z,25.74
2023-05-02T13:12:58.593Z,25.88
2023-05-02T13:15:28.417Z,25.92
2023-05-02T13:17:57.101Z,25.89
2023-05-02T13:20:25.495Z,25.97
2023-05-02T13:22:53.960Z,26.07
2023-05-02T13:25:22.034Z,26.25
2023-05-02T13:27:50.219Z,26.33
2023-05-02T13:30:18.526Z,26.39
2023-05-02T13:32:48.212Z,26.53
2023-05-02T13:35:16.900Z,26.59
2023-05-02T13:37:45.013Z,26.47
2023-05-02T13:40:14.380Z,26.42
2023-05-02T13:42:42.539Z,26.46
2023-05-02T13:45:11.401Z,26.40
2023-05-02T13:47:40.912Z,26.38
2023-05-02T13:50:12.698Z,26.42
2023-05-02T13:52:40.761Z,26.49
2023-05-02T13:55:09.677Z,26.49
2023-05-02T13:57:37.788Z,26.59
2023-05-02T14:00:09.785Z,26.55
2023-05-02T14:02:38.290Z,26.44
2023-05-02T14:05:07.264Z,26.28
2023-05-02T14:07:36.793Z,26.26
2023-05-02T14:10:05.563Z,26.32
2023-05-02T14:12:33.888Z,26.36
2023-05-02T14:15:02.001Z,26.39
2023-05-02T14:17:31.777Z,26.34
2023-05-02T14:20:00.218Z,26.32
2023-05-02T14:22:28.923Z,26.33
2023-05-02T14:24:58.487Z,26.31
2023-05-02T14:27:27.020Z,26.28
2023-05-02T14:29:55.150Z,26.30
2023-05-02T14:32:23.452Z,26.34
2023-05-02T14:34:51.621Z,26.38
2023-05-02T14:37:19.808Z,26.42
2023-05-02T14:39:58.146Z,26.49
2023-05-02T14:42:27.784Z,26.51
2023-05-02T14:44:57.488Z,26.55
2023-05-02T14:47:30.964Z,26.61
2023-05-02T14:49:59.203Z,26.70
2023-05-02T14:52:27.309Z,26.76
2023-05-02T14:54:55.445Z,26.77
2023-05-02T14:57:23.570Z,26.74
2023-05-02T14:59:53.064Z,26.66
2023-05-02T15:02:21.978Z,26.70
2023-05-02T15:04:50.411Z,26.78
2023-05-02T15:07:18.885Z,26.85
2023-05-02T15:09:47.045Z,26.88
2023-05-02T15:12:15.132Z,26.71
2023-05-02T15:14:43.250Z,26.53
2023-05-02T15:17:13.256Z,26.22
2023-05-02T15:19:41.383Z,26.17
2023-05-02T15:22:09.510Z,26.05
2023-05-02T15:24:37.716Z,25.92
2023-05-02T15:27:06.224Z,25.92
2023-05-02T15:29:34.327Z,26.01
2023-05-02T15:32:02.643Z,26.10
2023-05-02T15:34:32.113Z,26.16
2023-05-02T15:37:01.494Z,26.17
2023-05-02T15:39:29.555Z,26.18
2023-05-02T15:41:58.280Z,26.30
2023-05-02T15:44:26.969Z,26.39
2023-05-02T15:46:56.089Z,26.46
2023-05-02T15:49:25.108Z,26.55
2023-05-02T15:51:54.547Z,26.53
2023-05-02T15:54:22.583Z,26.36
2023-05-02T15:56:50.721Z,26.34
2023-05-02T15:59:19.036Z,26.31
2023-05-02T16:01:47.267Z,26.27
2023-05-02T16:04:15.678Z,26.31
2023-05-02T16:06:43.907Z,26.36
2023-05-02T16:09:13.827Z,26.37
2023-05-02T16:11:42.040Z,26.40
2023-05-02T16:14:10.180Z,26.41
2023-05-02T16:16:38.552Z,26.51
2023-05-02T16:19:12.618Z,26.61
2023-05-02T16:21:42.262Z,26.68
2023-05-02T16:24:10.591Z,26.64
2023-05-02T16:26:40.248Z,26.53
2023-05-02T16:29:08.440Z,26.29
2023-05-02T16:31:36.956Z,26.04
2023-05-02T16:34:05.628Z,25.79
2023-05-02T16:36:34.134Z,25.79
2023-05-02T16:39:02.699Z,25.78
2023-05-02T16:41:31.075Z,25.82
2023-05-02T16:44:01.116Z,25.86
2023-05-02T16:46:29.254Z,25.88
2023-05-02T16:48:57.363Z,25.88
2023-05-02T16:51:25.527Z,25.89
2023-05-02T16:53:53.654Z,25.80
2023-05-02T16:56:21.748Z,25.76
2023-05-02T16:58:50.120Z,25.72
2023-05-02T17:01:19.684Z,25.64
2023-05-02T17:03:48.084Z,25.49
2023-05-02T17:06:16.421Z,25.29
2023-05-02T17:08:44.579Z,25.11
2023-05-02T17:11:13.590Z,24.94
2023-05-02T17:13:42.456Z,24.72
2023-05-02T17:16:11.625Z,24.52
2023-05-02T17:18:41.305Z,24.29
2023-05-02T17:21:09.515Z,24.07
2023-05-02T17:23:37.881Z,23.84
2023-05-02T17:26:14.042Z,23.61
2023-05-02T17:28:42.604Z,23.34
2023-05-02T17:31:10.900Z,23.11
2023-05-02T17:33:40.568Z,22.92
2023-05-02T17:36:09.141Z,22.76
2023-05-02T17:38:37.686Z,22.63
2023-05-02T17:41:05.935Z,22.51
2023-05-02T17:43:34.465Z,22.40
2023-05-02T17:46:08.473Z,22.29
2023-05-02T17:48:36.959Z,22.10
2023-05-02T17:51:07.193Z,22.02
2023-05-02T17:53:36.923Z,21.88
2023-05-02T17:56:05.609Z,21.71
2023-05-02T17:58:35.500Z,21.55
2023-05-02T18:01:08.922Z,21.36
2023-05-02T18:03:37.791Z,21.21
2023-05-02T18:06:08.073Z,21.03
2023-05-02T18:08:36.319Z,20.95
2023-05-02T18:11:04.548Z,20.82
2023-05-02T18:13:32.573Z,20.74
2023-05-02T18:16:01.800Z,20.66
2023-05-02T18:18:30.118Z,20.60
2023-05-02T18:20:58.438Z,20.52
2023-05-02T18:23:28.116Z,20.46
2023-05-02T18:25:56.651Z,20.44
2023-05-02T18:28:24.858Z,20.39
2023-05-02T18:30:52.975Z,20.26
2023-05-02T18:33:21.260Z,20.19
2023-05-02T18:35:58.048Z,20.09
2023-05-02T18:38:40.974Z,20.05
2023-05-02T18:41:10.845Z,19.97
2023-05-02T18:43:47.051Z,19.96
2023-05-02T18:46:17.170Z,19.89
2023-05-02T18:48:52.490Z,19.87
2023-05-02T18:51:23.588Z,19.81
2023-05-02T18:53:54.587Z,19.70
2023-05-02T18:56:27.645Z,19.64
2023-05-02T18:58:59.434Z,19.57
2023-05-02T19:01:27.988Z,19.50
2023-05-02T19:03:56.607Z,19.39
2023-05-02T19:06:24.769Z,19.29
2023-05-02T19:08:54.444Z,19.19
2023-05-02T19:11:22.868Z,19.16
2023-05-02T19:13:51.362Z,19.09
2023-05-02T19:16:21.541Z,18.95
2023-05-02T19:18:52.436Z,18.83
2023-05-02T19:21:21.607Z,18.80
2023-05-02T19:23:51.756Z,18.77
2023-05-02T19:26:21.410Z,18.78
2023-05-02T19:28:49.665Z,18.79
2023-05-02T19:31:19.065Z,18.82
2023-05-02T19:33:51.981Z,18.80
2023-05-02T19:36:20.759Z,18.71
2023-05-02T19:38:50.766Z,18.65
2023-05-02T19:41:21.186Z,18.54
2023-05-02T19:43:49.576Z,18.42
2023-05-02T19:46:18.298Z,18.37
2023-05-02T19:48:46.845Z,18.31
2023-05-02T19:51:15.078Z,18.23
2023-05-02T19:53:43.210Z,18.14
2023-05-02T19:56:11.372Z,18.05
2023-05-02T19:58:40.985Z,18.00
2023-05-02T20:01:09.118Z,17.91
2023-05-02T20:03:37.432Z,17.85
2023-05-02T20:06:06.057Z,17.80
2023-05-02T20:08:34.357Z,17.73
2023-05-02T20:11:02.512Z,17.60
2023-05-02T20:13:30.633Z,17.53
2023-05-02T20:16:00.311Z,17.44
2023-05-02T20:18:28.542Z,17.36
2023-05-02T20:20:56.689Z,17.27
2023-05-02T20:23:24.875Z,17.30
2023-05-02T20:25:52.944Z,17.39
2023-05-02T20:28:21.034Z,17.47
2023-05-02T20:30:49.333Z,17.52
2023-05-02T20:33:19.734Z,17.53
2023-05-02T20:35:55.396Z,17.54
2023-05-02T20:38:24.331Z,17.56
2023-05-02T20:40:52.614Z,17.56
2023-05-02T20:43:22.969Z,17.52
2023-05-02T20:45:51.257Z,17.49
2023-05-02T20:48:20.887Z,17.43
2023-05-02T20:50:56.042Z,17.41
2023-05-02T20:53:24.481Z,17.39
2023-05-02T20:55:52.633Z,17.34
2023-05-02T20:58:20.751Z,17.33
2023-05-02T21:00:52.593Z,17.26
2023-05-02T21:03:23.049Z,17.18
2023-05-02T21:05:54.915Z,17.14
2023-05-02T21:08:23.368Z,17.14
2023-05-02T21:10:51.630Z,17.13
2023-05-02T21:13:19.866Z,17.17
2023-05-02T21:15:48.164Z,17.17
2023-05-02T21:18:16.307Z,17.08
2023-05-02T21:20:48.178Z,16.99
2023-05-02T21:23:16.420Z,16.80
2023-05-02T21:25:44.729Z,16.60
2023-05-02T21:28:12.917Z,16.43
2023-05-02T21:30:41.399Z,16.32
2023-05-02T21:33:09.856Z,16.27
2023-05-02T21:35:38.294Z,16.22
2023-05-02T21:38:08.035Z,16.19
2023-05-02T21:40:37.395Z,16.16
2023-05-02T21:43:05.631Z,16.14
2023-05-02T21:45:34.859Z,16.11
2023-05-02T21:48:03.110Z,16.07
2023-05-02T21:50:31.375Z,16.04
2023-05-02T21:52:59.597Z,15.99
2023-05-02T21:55:29.301Z,15.98
2023-05-02T21:57:57.924Z,15.95
2023-05-02T22:00:26.199Z,15.87
2023-05-02T22:02:54.510Z,15.82
2023-05-02T22:05:23.043Z,15.73
2023-05-02T22:07:52.387Z,15.72
2023-05-02T22:10:21.256Z,15.67
2023-05-02T22:12:50.860Z,15.67
2023-05-02T22:15:19.115Z,15.67
2023-05-02T22:17:48.443Z,15.68
2023-05-02T22:20:16.668Z,15.66
2023-05-02T22:22:44.831Z,15.70
2023-05-02T22:25:13.087Z,15.68
2023-05-02T22:27:41.621Z,15.63
2023-05-02T22:30:12.060Z,15.64
2023-05-02T22:32:40.432Z,15.60
2023-05-02T22:35:09.455Z,15.60
2023-05-02T22:37:37.817Z,15.56
2023-05-02T22:40:08.387Z,15.53
2023-05-02T22:42:36.682Z,15.52
2023-05-02T22:45:07.705Z,15.47
2023-05-02T22:47:37.379Z,15.47
2023-05-02T22:50:06.342Z,15.49
2023-05-02T22:52:37.909Z,15.49
2023-05-02T22:55:09.453Z,15.48
2023-05-02T22:57:37.747Z,15.46
2023-05-02T23:00:07.735Z,15.48
2023-05-02T23:02:37.782Z,15.44
2023-05-02T23:05:07.043Z,15.36
2023-05-02T23:07:35.342Z,15.36
2023-05-02T23:10:03.776Z,15.31
2023-05-02T23:12:32.209Z,15.29
2023-05-02T23:15:00.430Z,15.27
2023-05-02T23:17:28.680Z,15.23
2023-05-02T23:19:58.439Z,15.20
2023-05-02T23:22:26.619Z,15.19
2023-05-02T23:24:54.900Z,15.20
2023-05-02T23:27:23.113Z,15.12
2023-05-02T23:29:51.707Z,15.04
2023-05-02T23:32:20.937Z,15.01
2023-05-02T23:34:50.481Z,14.97
2023-05-02T23:37:20.189Z,15.00
2023-05-02T23:39:48.485Z,14.96
2023-05-02T23:42:17.083Z,14.96
2023-05-02T23:44:45.207Z,14.96
2023-05-02T23:47:13.633Z,14.95
2023-05-02T23:49:41.913Z,14.93
2023-05-02T23:52:10.219Z,14.93
2023-05-02T23:54:39.763Z,14.88
2023-05-02T23:57:09.370Z,14.79
2023-05-02T23:59:37.506Z,14.70
